sensor_id;sensor_type;location;lat;lon;timestamp;P1;durP1;ratioP1;P2;durP2;ratioP2
4450;SDS011;2238;50.180;9.230;2022-09-03T00:02:02;2.00;;;1.90;;
4450;SDS011;2238;50.180;9.230;2022-09-03T00:05:16;3.00;;;2.80;;
4450;SDS011;2238;50.180;9.230;2022-09-03T00:08:36;1.90;;;1.80;;
4450;SDS011;2238;50.180;9.230;2022-09-03T00:12:18;2.23;;;2.13;;
4450;SDS011;2238;50.180;9.230;2022-09-03T00:15:23;2.40;;;2.17;;
4450;SDS011;2238;50.180;9.230;2022-09-03T00:18:26;2.23;;;2.10;;
4450;SDS011;2238;50.180;9.230;2022-09-03T00:24:53;2.17;;;2.03;;
4450;SDS011;2238;50.180;9.230;2022-09-03T00:27:56;3.73;;;2.40;;
4450;SDS011;2238;50.180;9.230;2022-09-03T00:31:21;2.00;;;1.90;;
4450;SDS011;2238;50.180;9.230;2022-09-03T00:34:33;2.10;;;1.90;;
4450;SDS011;2238;50.180;9.230;2022-09-03T00:37:39;1.87;;;1.77;;
4450;SDS011;2238;50.180;9.230;2022-09-03T00:50:08;2.00;;;1.90;;
4450;SDS011;2238;50.180;9.230;2022-09-03T00:56:54;3.10;;;2.70;;
4450;SDS011;2238;50.180;9.230;2022-09-03T01:06:23;2.60;;;1.97;;
4450;SDS011;2238;50.180;9.230;2022-09-03T01:16:16;2.20;;;2.00;;
4450;SDS011;2238;50.180;9.230;2022-09-03T01:30:08;4.13;;;2.40;;
4450;SDS011;2238;50.180;9.230;2022-09-03T01:33:18;3.00;;;1.80;;
4450;SDS011;2238;50.180;9.230;2022-09-03T01:37:13;1.97;;;1.87;;
4450;SDS011;2238;50.180;9.230;2022-09-03T01:40:11;2.50;;;2.30;;
4450;SDS011;2238;50.180;9.230;2022-09-03T01:46:39;2.10;;;2.00;;
4450;SDS011;2238;50.180;9.230;2022-09-03T01:49:43;2.33;;;2.23;;
4450;SDS011;2238;50.180;9.230;2022-09-03T01:52:56;1.97;;;1.87;;
4450;SDS011;2238;50.180;9.230;2022-09-03T01:56:16;3.40;;;1.80;;
4450;SDS011;2238;50.180;9.230;2022-09-03T02:02:50;1.97;;;1.87;;
4450;SDS011;2238;50.180;9.230;2022-09-03T02:05:51;2.07;;;1.97;;
4450;SDS011;2238;50.180;9.230;2022-09-03T02:08:52;2.40;;;2.03;;
4450;SDS011;2238;50.180;9.230;2022-09-03T02:11:54;3.97;;;2.40;;
4450;SDS011;2238;50.180;9.230;2022-09-03T02:14:59;2.37;;;1.87;;
4450;SDS011;2238;50.180;9.230;2022-09-03T02:18:04;2.20;;;1.97;;
4450;SDS011;2238;50.180;9.230;2022-09-03T02:21:09;2.17;;;2.07;;
4450;SDS011;2238;50.180;9.230;2022-09-03T02:24:09;1.97;;;1.87;;
4450;SDS011;2238;50.180;9.230;2022-09-03T02:27:10;3.30;;;2.40;;
4450;SDS011;2238;50.180;9.230;2022-09-03T02:30:11;2.17;;;2.07;;
4450;SDS011;2238;50.180;9.230;2022-09-03T02:33:11;2.70;;;1.80;;
4450;SDS011;2238;50.180;9.230;2022-09-03T02:36:13;2.53;;;2.10;;
4450;SDS011;2238;50.180;9.230;2022-09-03T02:39:15;3.40;;;2.00;;
4450;SDS011;2238;50.180;9.230;2022-09-03T02:42:16;2.47;;;2.30;;
4450;SDS011;2238;50.180;9.230;2022-09-03T02:45:23;2.17;;;2.00;;
4450;SDS011;2238;50.180;9.230;2022-09-03T02:48:28;6.20;;;2.23;;
4450;SDS011;2238;50.180;9.230;2022-09-03T02:51:47;3.03;;;2.20;;
4450;SDS011;2238;50.180;9.230;2022-09-03T02:54:47;2.00;;;1.90;;
4450;SDS011;2238;50.180;9.230;2022-09-03T02:57:48;2.23;;;2.13;;
4450;SDS011;2238;50.180;9.230;2022-09-03T03:00:49;2.00;;;1.90;;
4450;SDS011;2238;50.180;9.230;2022-09-03T03:03:50;2.43;;;2.10;;
4450;SDS011;2238;50.180;9.230;2022-09-03T03:06:51;3.70;;;2.23;;
4450;SDS011;2238;50.180;9.230;2022-09-03T03:09:52;2.30;;;2.07;;
4450;SDS011;2238;50.180;9.230;2022-09-03T03:12:53;2.07;;;1.97;;
4450;SDS011;2238;50.180;9.230;2022-09-03T03:15:57;2.43;;;2.10;;
4450;SDS011;2238;50.180;9.230;2022-09-03T03:18:59;2.03;;;1.93;;
4450;SDS011;2238;50.180;9.230;2022-09-03T03:21:59;2.50;;;2.40;;
4450;SDS011;2238;50.180;9.230;2022-09-03T03:25:00;2.20;;;2.10;;
4450;SDS011;2238;50.180;9.230;2022-09-03T03:28:00;2.67;;;2.47;;
4450;SDS011;2238;50.180;9.230;2022-09-03T03:31:10;2.70;;;2.00;;
4450;SDS011;2238;50.180;9.230;2022-09-03T03:34:15;2.47;;;2.27;;
4450;SDS011;2238;50.180;9.230;2022-09-03T03:37:15;2.40;;;2.30;;
4450;SDS011;2238;50.180;9.230;2022-09-03T03:40:16;1.77;;;1.67;;
4450;SDS011;2238;50.180;9.230;2022-09-03T03:43:17;2.40;;;2.20;;
4450;SDS011;2238;50.180;9.230;2022-09-03T03:46:17;2.20;;;2.00;;
4450;SDS011;2238;50.180;9.230;2022-09-03T03:49:18;2.33;;;2.23;;
4450;SDS011;2238;50.180;9.230;2022-09-03T03:52:18;3.10;;;2.30;;
4450;SDS011;2238;50.180;9.230;2022-09-03T03:55:19;2.87;;;2.57;;
4450;SDS011;2238;50.180;9.230;2022-09-03T03:58:20;2.10;;;1.90;;
4450;SDS011;2238;50.180;9.230;2022-09-03T04:01:22;5.07;;;2.50;;
4450;SDS011;2238;50.180;9.230;2022-09-03T04:04:24;2.20;;;2.10;;
4450;SDS011;2238;50.180;9.230;2022-09-03T04:07:24;3.57;;;2.07;;
4450;SDS011;2238;50.180;9.230;2022-09-03T04:10:25;2.03;;;1.93;;
4450;SDS011;2238;50.180;9.230;2022-09-03T04:13:32;2.10;;;2.00;;
4450;SDS011;2238;50.180;9.230;2022-09-03T04:16:34;2.73;;;2.30;;
4450;SDS011;2238;50.180;9.230;2022-09-03T04:19:35;2.30;;;2.13;;
4450;SDS011;2238;50.180;9.230;2022-09-03T04:22:37;2.20;;;2.10;;
4450;SDS011;2238;50.180;9.230;2022-09-03T04:25:37;3.10;;;2.80;;
4450;SDS011;2238;50.180;9.230;2022-09-03T04:28:39;2.20;;;2.10;;
4450;SDS011;2238;50.180;9.230;2022-09-03T04:31:41;3.10;;;2.20;;
4450;SDS011;2238;50.180;9.230;2022-09-03T04:35:04;1.97;;;1.87;;
4450;SDS011;2238;50.180;9.230;2022-09-03T04:38:05;2.63;;;2.43;;
4450;SDS011;2238;50.180;9.230;2022-09-03T04:41:07;2.20;;;2.10;;
4450;SDS011;2238;50.180;9.230;2022-09-03T04:44:10;3.00;;;2.20;;
4450;SDS011;2238;50.180;9.230;2022-09-03T04:47:11;2.27;;;2.07;;
4450;SDS011;2238;50.180;9.230;2022-09-03T04:50:12;2.77;;;2.07;;
4450;SDS011;2238;50.180;9.230;2022-09-03T04:53:12;3.37;;;2.33;;
4450;SDS011;2238;50.180;9.230;2022-09-03T04:56:14;2.47;;;2.27;;
4450;SDS011;2238;50.180;9.230;2022-09-03T04:59:18;2.13;;;1.90;;
4450;SDS011;2238;50.180;9.230;2022-09-03T05:02:19;2.33;;;2.13;;
4450;SDS011;2238;50.180;9.230;2022-09-03T05:05:20;2.13;;;2.03;;
4450;SDS011;2238;50.180;9.230;2022-09-03T05:08:21;3.10;;;2.40;;
4450;SDS011;2238;50.180;9.230;2022-09-03T05:11:23;2.50;;;2.30;;
4450;SDS011;2238;50.180;9.230;2022-09-03T05:14:24;2.40;;;2.03;;
4450;SDS011;2238;50.180;9.230;2022-09-03T05:17:25;3.03;;;2.20;;
4450;SDS011;2238;50.180;9.230;2022-09-03T05:20:26;2.70;;;2.20;;
4450;SDS011;2238;50.180;9.230;2022-09-03T05:23:34;2.80;;;2.20;;
4450;SDS011;2238;50.180;9.230;2022-09-03T05:26:37;3.40;;;2.47;;
4450;SDS011;2238;50.180;9.230;2022-09-03T05:29:38;2.03;;;1.93;;
4450;SDS011;2238;50.180;9.230;2022-09-03T05:32:39;2.40;;;2.30;;
4450;SDS011;2238;50.180;9.230;2022-09-03T05:35:40;8.93;;;3.20;;
4450;SDS011;2238;50.180;9.230;2022-09-03T05:38:41;2.53;;;2.17;;
4450;SDS011;2238;50.180;9.230;2022-09-03T05:41:42;5.03;;;2.13;;
4450;SDS011;2238;50.180;9.230;2022-09-03T05:44:43;2.13;;;2.03;;
4450;SDS011;2238;50.180;9.230;2022-09-03T05:47:43;3.93;;;2.27;;
4450;SDS011;2238;50.180;9.230;2022-09-03T05:50:44;2.30;;;2.20;;
4450;SDS011;2238;50.180;9.230;2022-09-03T05:53:45;2.47;;;2.27;;
4450;SDS011;2238;50.180;9.230;2022-09-03T05:56:47;2.60;;;2.30;;
4450;SDS011;2238;50.180;9.230;2022-09-03T05:59:48;2.50;;;2.40;;
4450;SDS011;2238;50.180;9.230;2022-09-03T06:02:49;2.50;;;2.30;;
4450;SDS011;2238;50.180;9.230;2022-09-03T06:05:51;10.30;;;2.20;;
4450;SDS011;2238;50.180;9.230;2022-09-03T06:08:53;3.60;;;2.60;;
4450;SDS011;2238;50.180;9.230;2022-09-03T06:11:57;2.53;;;2.33;;
4450;SDS011;2238;50.180;9.230;2022-09-03T06:14:57;2.67;;;2.50;;
4450;SDS011;2238;50.180;9.230;2022-09-03T06:17:58;5.83;;;2.30;;
4450;SDS011;2238;50.180;9.230;2022-09-03T06:20:59;2.50;;;2.23;;
4450;SDS011;2238;50.180;9.230;2022-09-03T06:24:02;4.10;;;2.40;;
4450;SDS011;2238;50.180;9.230;2022-09-03T06:27:02;2.97;;;2.37;;
4450;SDS011;2238;50.180;9.230;2022-09-03T06:30:03;2.60;;;2.40;;
4450;SDS011;2238;50.180;9.230;2022-09-03T06:33:05;2.57;;;2.40;;
4450;SDS011;2238;50.180;9.230;2022-09-03T06:36:06;2.17;;;2.07;;
4450;SDS011;2238;50.180;9.230;2022-09-03T06:39:09;2.37;;;2.27;;
4450;SDS011;2238;50.180;9.230;2022-09-03T06:42:09;2.80;;;2.60;;
4450;SDS011;2238;50.180;9.230;2022-09-03T06:45:11;2.53;;;2.33;;
4450;SDS011;2238;50.180;9.230;2022-09-03T06:48:11;3.03;;;2.83;;
4450;SDS011;2238;50.180;9.230;2022-09-03T06:51:17;2.50;;;2.30;;
4450;SDS011;2238;50.180;9.230;2022-09-03T06:54:19;2.63;;;2.43;;
4450;SDS011;2238;50.180;9.230;2022-09-03T06:57:19;2.90;;;2.70;;
4450;SDS011;2238;50.180;9.230;2022-09-03T07:00:20;2.60;;;2.40;;
4450;SDS011;2238;50.180;9.230;2022-09-03T07:03:22;3.43;;;2.63;;
4450;SDS011;2238;50.180;9.230;2022-09-03T07:06:23;2.57;;;2.37;;
4450;SDS011;2238;50.180;9.230;2022-09-03T07:09:26;2.60;;;2.40;;
4450;SDS011;2238;50.180;9.230;2022-09-03T07:12:26;2.30;;;2.20;;
4450;SDS011;2238;50.180;9.230;2022-09-03T07:15:27;3.07;;;2.50;;
4450;SDS011;2238;50.180;9.230;2022-09-03T07:18:28;2.67;;;2.47;;
4450;SDS011;2238;50.180;9.230;2022-09-03T07:21:30;2.13;;;2.03;;
4450;SDS011;2238;50.180;9.230;2022-09-03T07:24:35;4.17;;;2.43;;
4450;SDS011;2238;50.180;9.230;2022-09-03T07:27:36;2.53;;;2.33;;
4450;SDS011;2238;50.180;9.230;2022-09-03T07:30:37;2.60;;;2.40;;
4450;SDS011;2238;50.180;9.230;2022-09-03T07:33:38;2.70;;;2.47;;
4450;SDS011;2238;50.180;9.230;2022-09-03T07:36:39;2.40;;;2.30;;
4450;SDS011;2238;50.180;9.230;2022-09-03T07:39:45;3.40;;;2.47;;
4450;SDS011;2238;50.180;9.230;2022-09-03T07:42:46;3.53;;;2.23;;
4450;SDS011;2238;50.180;9.230;2022-09-03T07:45:50;2.30;;;2.20;;
4450;SDS011;2238;50.180;9.230;2022-09-03T07:48:54;3.20;;;2.37;;
4450;SDS011;2238;50.180;9.230;2022-09-03T07:51:56;3.03;;;2.20;;
4450;SDS011;2238;50.180;9.230;2022-09-03T07:54:56;4.10;;;2.40;;
4450;SDS011;2238;50.180;9.230;2022-09-03T07:57:58;2.93;;;2.73;;
4450;SDS011;2238;50.180;9.230;2022-09-03T08:01:03;2.10;;;2.00;;
4450;SDS011;2238;50.180;9.230;2022-09-03T08:04:08;5.53;;;3.70;;
4450;SDS011;2238;50.180;9.230;2022-09-03T08:07:09;2.90;;;2.60;;
4450;SDS011;2238;50.180;9.230;2022-09-03T08:10:10;2.80;;;2.50;;
4450;SDS011;2238;50.180;9.230;2022-09-03T08:13:11;3.00;;;2.80;;
4450;SDS011;2238;50.180;9.230;2022-09-03T08:16:11;3.10;;;2.30;;
4450;SDS011;2238;50.180;9.230;2022-09-03T08:19:13;3.03;;;2.73;;
4450;SDS011;2238;50.180;9.230;2022-09-03T08:22:16;3.47;;;3.20;;
4450;SDS011;2238;50.180;9.230;2022-09-03T08:25:16;4.67;;;2.80;;
4450;SDS011;2238;50.180;9.230;2022-09-03T08:28:17;3.10;;;2.90;;
4450;SDS011;2238;50.180;9.230;2022-09-03T08:31:18;3.13;;;2.83;;
4450;SDS011;2238;50.180;9.230;2022-09-03T08:34:20;2.80;;;2.60;;
4450;SDS011;2238;50.180;9.230;2022-09-03T08:37:22;2.97;;;2.77;;
4450;SDS011;2238;50.180;9.230;2022-09-03T08:40:26;4.00;;;3.67;;
4450;SDS011;2238;50.180;9.230;2022-09-03T08:43:29;4.97;;;3.10;;
4450;SDS011;2238;50.180;9.230;2022-09-03T08:49:58;3.00;;;2.80;;
4450;SDS011;2238;50.180;9.230;2022-09-03T08:56:26;2.93;;;2.73;;
4450;SDS011;2238;50.180;9.230;2022-09-03T08:59:29;3.03;;;2.80;;
4450;SDS011;2238;50.180;9.230;2022-09-03T09:09:16;2.83;;;2.60;;
4450;SDS011;2238;50.180;9.230;2022-09-03T09:12:56;3.03;;;2.67;;
4450;SDS011;2238;50.180;9.230;2022-09-03T09:16:10;2.60;;;2.40;;
4450;SDS011;2238;50.180;9.230;2022-09-03T09:22:28;2.77;;;2.43;;
4450;SDS011;2238;50.180;9.230;2022-09-03T09:25:49;3.10;;;2.70;;
4450;SDS011;2238;50.180;9.230;2022-09-03T09:28:54;2.87;;;2.50;;
4450;SDS011;2238;50.180;9.230;2022-09-03T09:31:59;3.50;;;2.80;;
4450;SDS011;2238;50.180;9.230;2022-09-03T09:34:59;2.67;;;2.47;;
4450;SDS011;2238;50.180;9.230;2022-09-03T09:38:00;2.77;;;2.57;;
4450;SDS011;2238;50.180;9.230;2022-09-03T09:41:17;2.60;;;2.40;;
4450;SDS011;2238;50.180;9.230;2022-09-03T09:44:19;2.43;;;2.23;;
4450;SDS011;2238;50.180;9.230;2022-09-03T09:47:30;2.70;;;2.60;;
4450;SDS011;2238;50.180;9.230;2022-09-03T09:50:37;2.80;;;2.60;;
4450;SDS011;2238;50.180;9.230;2022-09-03T09:53:38;3.23;;;2.63;;
4450;SDS011;2238;50.180;9.230;2022-09-03T09:56:41;3.50;;;2.90;;
4450;SDS011;2238;50.180;9.230;2022-09-03T09:59:43;2.83;;;2.63;;
4450;SDS011;2238;50.180;9.230;2022-09-03T10:02:52;6.80;;;2.60;;
4450;SDS011;2238;50.180;9.230;2022-09-03T10:06:02;2.60;;;2.40;;
4450;SDS011;2238;50.180;9.230;2022-09-03T10:09:27;4.00;;;3.57;;
4450;SDS011;2238;50.180;9.230;2022-09-03T10:50:40;3.30;;;3.00;;
4450;SDS011;2238;50.180;9.230;2022-09-03T10:54:00;5.70;;;5.10;;
4450;SDS011;2238;50.180;9.230;2022-09-03T10:57:14;3.83;;;2.83;;
4450;SDS011;2238;50.180;9.230;2022-09-03T11:00:34;2.90;;;2.70;;
4450;SDS011;2238;50.180;9.230;2022-09-03T11:03:59;2.80;;;2.60;;
4450;SDS011;2238;50.180;9.230;2022-09-03T11:07:28;3.00;;;2.70;;
4450;SDS011;2238;50.180;9.230;2022-09-03T11:10:38;3.17;;;2.97;;
4450;SDS011;2238;50.180;9.230;2022-09-03T11:17:12;3.17;;;2.97;;
4450;SDS011;2238;50.180;9.230;2022-09-03T11:20:24;3.43;;;2.83;;
4450;SDS011;2238;50.180;9.230;2022-09-03T11:23:26;3.20;;;2.90;;
4450;SDS011;2238;50.180;9.230;2022-09-03T11:26:32;5.93;;;2.80;;
4450;SDS011;2238;50.180;9.230;2022-09-03T11:29:38;2.97;;;2.77;;
4450;SDS011;2238;50.180;9.230;2022-09-03T11:32:46;2.73;;;2.53;;
4450;SDS011;2238;50.180;9.230;2022-09-03T11:35:54;3.47;;;3.10;;
4450;SDS011;2238;50.180;9.230;2022-09-03T11:38:59;3.57;;;3.37;;
4450;SDS011;2238;50.180;9.230;2022-09-03T11:42:02;3.43;;;3.03;;
4450;SDS011;2238;50.180;9.230;2022-09-03T11:48:29;3.73;;;3.40;;
4450;SDS011;2238;50.180;9.230;2022-09-03T11:51:38;3.83;;;3.27;;
4450;SDS011;2238;50.180;9.230;2022-09-03T11:54:43;3.27;;;2.97;;
4450;SDS011;2238;50.180;9.230;2022-09-03T11:57:45;3.57;;;3.27;;
4450;SDS011;2238;50.180;9.230;2022-09-03T12:00:45;5.17;;;3.17;;
4450;SDS011;2238;50.180;9.230;2022-09-03T12:03:55;3.23;;;3.03;;
4450;SDS011;2238;50.180;9.230;2022-09-03T12:07:05;3.40;;;3.10;;
4450;SDS011;2238;50.180;9.230;2022-09-03T12:10:53;3.53;;;3.10;;
4450;SDS011;2238;50.180;9.230;2022-09-03T12:14:11;3.63;;;3.33;;
4450;SDS011;2238;50.180;9.230;2022-09-03T12:20:26;3.70;;;3.40;;
4450;SDS011;2238;50.180;9.230;2022-09-03T12:26:42;3.20;;;3.00;;
4450;SDS011;2238;50.180;9.230;2022-09-03T12:29:49;5.70;;;3.40;;
4450;SDS011;2238;50.180;9.230;2022-09-03T12:33:02;4.33;;;2.93;;
4450;SDS011;2238;50.180;9.230;2022-09-03T12:36:08;3.43;;;3.23;;
4450;SDS011;2238;50.180;9.230;2022-09-03T12:39:12;3.47;;;3.07;;
4450;SDS011;2238;50.180;9.230;2022-09-03T12:42:22;3.03;;;2.80;;
4450;SDS011;2238;50.180;9.230;2022-09-03T12:45:25;3.60;;;3.30;;
4450;SDS011;2238;50.180;9.230;2022-09-03T12:48:27;2.93;;;2.73;;
4450;SDS011;2238;50.180;9.230;2022-09-03T12:51:30;3.50;;;3.10;;
4450;SDS011;2238;50.180;9.230;2022-09-03T12:54:33;5.10;;;3.00;;
4450;SDS011;2238;50.180;9.230;2022-09-03T12:57:41;3.27;;;2.97;;
4450;SDS011;2238;50.180;9.230;2022-09-03T13:00:46;3.63;;;3.40;;
4450;SDS011;2238;50.180;9.230;2022-09-03T13:04:04;7.20;;;3.13;;
4450;SDS011;2238;50.180;9.230;2022-09-03T13:10:37;3.17;;;2.87;;
4450;SDS011;2238;50.180;9.230;2022-09-03T13:13:49;3.20;;;2.50;;
4450;SDS011;2238;50.180;9.230;2022-09-03T13:17:20;4.33;;;2.93;;
4450;SDS011;2238;50.180;9.230;2022-09-03T13:27:53;3.30;;;2.67;;
4450;SDS011;2238;50.180;9.230;2022-09-03T13:34:49;5.50;;;2.80;;
4450;SDS011;2238;50.180;9.230;2022-09-03T13:38:17;2.77;;;2.57;;
4450;SDS011;2238;50.180;9.230;2022-09-03T13:41:37;2.70;;;2.50;;
4450;SDS011;2238;50.180;9.230;2022-09-03T13:44:56;2.90;;;2.70;;
4450;SDS011;2238;50.180;9.230;2022-09-03T13:48:20;4.90;;;2.53;;
4450;SDS011;2238;50.180;9.230;2022-09-03T13:51:57;5.47;;;3.07;;
4450;SDS011;2238;50.180;9.230;2022-09-03T13:55:07;2.73;;;2.50;;
4450;SDS011;2238;50.180;9.230;2022-09-03T14:05:30;2.30;;;2.10;;
4450;SDS011;2238;50.180;9.230;2022-09-03T14:12:17;4.83;;;2.07;;
4450;SDS011;2238;50.180;9.230;2022-09-03T14:22:24;2.30;;;2.10;;
4450;SDS011;2238;50.180;9.230;2022-09-03T14:25:32;3.47;;;2.53;;
4450;SDS011;2238;50.180;9.230;2022-09-03T14:28:36;7.53;;;2.53;;
4450;SDS011;2238;50.180;9.230;2022-09-03T14:35:00;2.50;;;2.40;;
4450;SDS011;2238;50.180;9.230;2022-09-03T14:38:24;2.70;;;2.50;;
4450;SDS011;2238;50.180;9.230;2022-09-03T14:44:59;2.60;;;2.40;;
4450;SDS011;2238;50.180;9.230;2022-09-03T14:52:03;2.60;;;2.40;;
4450;SDS011;2238;50.180;9.230;2022-09-03T14:58:48;2.60;;;2.37;;
4450;SDS011;2238;50.180;9.230;2022-09-03T15:02:06;2.90;;;2.70;;
4450;SDS011;2238;50.180;9.230;2022-09-03T15:12:17;3.03;;;2.83;;
4450;SDS011;2238;50.180;9.230;2022-09-03T15:18:45;2.93;;;2.73;;
4450;SDS011;2238;50.180;9.230;2022-09-03T15:22:07;2.73;;;2.53;;
4450;SDS011;2238;50.180;9.230;2022-09-03T15:35:07;3.67;;;2.80;;
4450;SDS011;2238;50.180;9.230;2022-09-03T15:41:49;2.90;;;2.70;;
4450;SDS011;2238;50.180;9.230;2022-09-03T15:45:00;2.90;;;2.70;;
4450;SDS011;2238;50.180;9.230;2022-09-03T15:48:15;3.10;;;2.90;;
4450;SDS011;2238;50.180;9.230;2022-09-03T15:54:57;4.00;;;2.90;;
4450;SDS011;2238;50.180;9.230;2022-09-03T15:58:28;2.50;;;2.37;;
4450;SDS011;2238;50.180;9.230;2022-09-03T16:01:43;3.63;;;2.80;;
4450;SDS011;2238;50.180;9.230;2022-09-03T16:11:11;2.20;;;2.10;;
4450;SDS011;2238;50.180;9.230;2022-09-03T16:21:25;2.17;;;2.07;;
4450;SDS011;2238;50.180;9.230;2022-09-03T16:25:33;2.33;;;2.23;;
4450;SDS011;2238;50.180;9.230;2022-09-03T16:28:27;1.87;;;1.77;;
4450;SDS011;2238;50.180;9.230;2022-09-03T16:31:58;2.53;;;2.30;;
4450;SDS011;2238;50.180;9.230;2022-09-03T16:54:59;3.20;;;2.50;;
4450;SDS011;2238;50.180;9.230;2022-09-03T16:58:16;2.80;;;2.57;;
4450;SDS011;2238;50.180;9.230;2022-09-03T17:01:32;2.80;;;2.60;;
4450;SDS011;2238;50.180;9.230;2022-09-03T17:05:06;2.40;;;2.20;;
4450;SDS011;2238;50.180;9.230;2022-09-03T17:08:39;3.23;;;3.03;;
4450;SDS011;2238;50.180;9.230;2022-09-03T17:18:46;5.10;;;3.40;;
4450;SDS011;2238;50.180;9.230;2022-09-03T17:25:30;2.87;;;2.50;;
4450;SDS011;2238;50.180;9.230;2022-09-03T17:28:47;2.80;;;2.60;;
4450;SDS011;2238;50.180;9.230;2022-09-03T17:35:42;3.10;;;2.67;;
4450;SDS011;2238;50.180;9.230;2022-09-03T17:42:38;2.57;;;2.37;;
4450;SDS011;2238;50.180;9.230;2022-09-03T17:46:10;3.93;;;3.03;;
4450;SDS011;2238;50.180;9.230;2022-09-03T17:52:55;2.90;;;2.70;;
4450;SDS011;2238;50.180;9.230;2022-09-03T17:56:08;2.77;;;2.57;;
4450;SDS011;2238;50.180;9.230;2022-09-03T18:06:18;4.23;;;3.83;;
4450;SDS011;2238;50.180;9.230;2022-09-03T18:09:29;8.13;;;3.10;;
4450;SDS011;2238;50.180;9.230;2022-09-03T18:12:45;3.17;;;2.93;;
4450;SDS011;2238;50.180;9.230;2022-09-03T18:16:05;3.70;;;3.40;;
4450;SDS011;2238;50.180;9.230;2022-09-03T18:19:18;3.80;;;3.57;;
4450;SDS011;2238;50.180;9.230;2022-09-03T18:22:35;3.73;;;3.43;;
4450;SDS011;2238;50.180;9.230;2022-09-03T18:26:28;3.37;;;2.87;;
4450;SDS011;2238;50.180;9.230;2022-09-03T18:29:54;3.40;;;3.10;;
4450;SDS011;2238;50.180;9.230;2022-09-03T18:33:24;2.93;;;2.73;;
4450;SDS011;2238;50.180;9.230;2022-09-03T18:36:43;3.70;;;3.40;;
4450;SDS011;2238;50.180;9.230;2022-09-03T18:40:03;6.30;;;5.87;;
4450;SDS011;2238;50.180;9.230;2022-09-03T18:50:23;4.50;;;4.10;;
4450;SDS011;2238;50.180;9.230;2022-09-03T18:54:43;4.33;;;3.20;;
4450;SDS011;2238;50.180;9.230;2022-09-03T18:57:46;3.43;;;3.23;;
4450;SDS011;2238;50.180;9.230;2022-09-03T19:01:20;10.00;;;3.80;;
4450;SDS011;2238;50.180;9.230;2022-09-03T19:12:40;5.43;;;3.93;;
4450;SDS011;2238;50.180;9.230;2022-09-03T19:22:50;3.80;;;3.47;;
4450;SDS011;2238;50.180;9.230;2022-09-03T19:26:20;3.53;;;3.23;;
4450;SDS011;2238;50.180;9.230;2022-09-03T19:30:03;6.83;;;4.30;;
4450;SDS011;2238;50.180;9.230;2022-09-03T19:44:45;7.13;;;4.00;;
4450;SDS011;2238;50.180;9.230;2022-09-03T19:48:38;7.13;;;4.00;;
4450;SDS011;2238;50.180;9.230;2022-09-03T19:55:55;6.13;;;3.93;;
4450;SDS011;2238;50.180;9.230;2022-09-03T19:59:20;5.17;;;4.33;;
4450;SDS011;2238;50.180;9.230;2022-09-03T20:02:45;4.83;;;4.40;;
4450;SDS011;2238;50.180;9.230;2022-09-03T20:06:06;4.20;;;3.57;;
4450;SDS011;2238;50.180;9.230;2022-09-03T20:09:29;5.90;;;4.23;;
4450;SDS011;2238;50.180;9.230;2022-09-03T20:16:23;5.37;;;4.87;;
4450;SDS011;2238;50.180;9.230;2022-09-03T20:22:48;7.37;;;3.60;;
4450;SDS011;2238;50.180;9.230;2022-09-03T20:29:42;4.70;;;4.30;;
4450;SDS011;2238;50.180;9.230;2022-09-03T20:53:10;4.00;;;3.70;;
4450;SDS011;2238;50.180;9.230;2022-09-03T21:00:00;4.50;;;3.83;;
4450;SDS011;2238;50.180;9.230;2022-09-03T21:03:11;4.10;;;3.73;;
4450;SDS011;2238;50.180;9.230;2022-09-03T21:06:41;4.07;;;3.77;;
4450;SDS011;2238;50.180;9.230;2022-09-03T21:09:57;4.20;;;3.80;;
4450;SDS011;2238;50.180;9.230;2022-09-03T21:16:32;4.10;;;3.80;;
4450;SDS011;2238;50.180;9.230;2022-09-03T21:26:20;3.93;;;3.67;;
4450;SDS011;2238;50.180;9.230;2022-09-03T21:29:25;4.00;;;3.70;;
4450;SDS011;2238;50.180;9.230;2022-09-03T21:32:49;5.33;;;4.20;;
4450;SDS011;2238;50.180;9.230;2022-09-03T21:36:23;4.30;;;3.90;;
4450;SDS011;2238;50.180;9.230;2022-09-03T21:39:35;4.00;;;3.60;;
4450;SDS011;2238;50.180;9.230;2022-09-03T21:43:31;4.47;;;3.23;;
4450;SDS011;2238;50.180;9.230;2022-09-03T21:46:24;2.93;;;2.73;;
4450;SDS011;2238;50.180;9.230;2022-09-03T21:49:51;2.70;;;2.60;;
4450;SDS011;2238;50.180;9.230;2022-09-03T21:53:11;2.40;;;2.30;;
4450;SDS011;2238;50.180;9.230;2022-09-03T21:56:27;2.73;;;2.53;;
4450;SDS011;2238;50.180;9.230;2022-09-03T22:02:51;2.53;;;2.30;;
4450;SDS011;2238;50.180;9.230;2022-09-03T22:06:01;2.30;;;2.10;;
4450;SDS011;2238;50.180;9.230;2022-09-03T22:16:02;2.47;;;2.27;;
4450;SDS011;2238;50.180;9.230;2022-09-03T22:19:27;2.83;;;2.63;;
4450;SDS011;2238;50.180;9.230;2022-09-03T22:25:56;2.23;;;2.10;;
4450;SDS011;2238;50.180;9.230;2022-09-03T22:29:04;2.70;;;2.50;;
4450;SDS011;2238;50.180;9.230;2022-09-03T22:35:39;2.30;;;2.10;;
4450;SDS011;2238;50.180;9.230;2022-09-03T22:42:39;2.13;;;2.03;;
4450;SDS011;2238;50.180;9.230;2022-09-03T22:46:19;2.93;;;2.03;;
4450;SDS011;2238;50.180;9.230;2022-09-03T22:49:35;2.67;;;2.47;;
4450;SDS011;2238;50.180;9.230;2022-09-03T22:56:09;1.70;;;1.60;;
4450;SDS011;2238;50.180;9.230;2022-09-03T23:02:21;1.70;;;1.60;;
4450;SDS011;2238;50.180;9.230;2022-09-03T23:05:34;1.67;;;1.53;;
4450;SDS011;2238;50.180;9.230;2022-09-03T23:09:09;1.40;;;1.30;;
4450;SDS011;2238;50.180;9.230;2022-09-03T23:12:34;1.60;;;1.50;;
4450;SDS011;2238;50.180;9.230;2022-09-03T23:15:50;1.77;;;1.67;;
4450;SDS011;2238;50.180;9.230;2022-09-03T23:19:12;1.93;;;1.80;;
4450;SDS011;2238;50.180;9.230;2022-09-03T23:22:19;2.90;;;2.70;;
4450;SDS011;2238;50.180;9.230;2022-09-03T23:25:31;2.17;;;1.97;;
4450;SDS011;2238;50.180;9.230;2022-09-03T23:28:45;2.47;;;2.27;;
4450;SDS011;2238;50.180;9.230;2022-09-03T23:31:48;3.20;;;1.93;;
4450;SDS011;2238;50.180;9.230;2022-09-03T23:34:50;2.17;;;1.97;;
4450;SDS011;2238;50.180;9.230;2022-09-03T23:38:10;2.33;;;2.13;;
4450;SDS011;2238;50.180;9.230;2022-09-03T23:41:25;2.30;;;2.10;;
4450;SDS011;2238;50.180;9.230;2022-09-03T23:48:01;2.80;;;2.60;;
4450;SDS011;2238;50.180;9.230;2022-09-03T23:51:19;2.73;;;2.53;;
4450;SDS011;2238;50.180;9.230;2022-09-03T23:54:36;3.00;;;2.70;;
4450;SDS011;2238;50.180;9.230;2022-09-03T23:57:39;2.80;;;2.60;;
